sensor_id;sensor_type;location;lat;lon;timestamp;P1;durP1;ratioP1;P2;durP2;ratioP2
1446;SDS011;717;51.522;7.266;2023-10-19T00:02:14;3.90;;;3.45;;
1446;SDS011;717;51.522;7.266;2023-10-19T00:04:48;4.25;;;3.88;;
1446;SDS011;717;51.522;7.266;2023-10-19T00:07:16;4.82;;;3.70;;
1446;SDS011;717;51.522;7.266;2023-10-19T00:09:46;5.28;;;4.75;;
1446;SDS011;717;51.522;7.266;2023-10-19T00:12:19;6.45;;;4.70;;
1446;SDS011;717;51.522;7.266;2023-10-19T00:14:49;4.57;;;3.95;;
1446;SDS011;717;51.522;7.266;2023-10-19T00:17:16;4.20;;;3.78;;
1446;SDS011;717;51.522;7.266;2023-10-19T00:19:50;4.35;;;3.83;;
1446;SDS011;717;51.522;7.266;2023-10-19T00:22:24;4.07;;;3.67;;
1446;SDS011;717;51.522;7.266;2023-10-19T00:24:57;4.32;;;3.92;;
1446;SDS011;717;51.522;7.266;2023-10-19T00:27:29;4.53;;;4.00;;
1446;SDS011;717;51.522;7.266;2023-10-19T00:29:58;4.10;;;3.70;;
1446;SDS011;717;51.522;7.266;2023-10-19T00:32:33;4.13;;;3.72;;
1446;SDS011;717;51.522;7.266;2023-10-19T00:35:08;4.22;;;3.83;;
1446;SDS011;717;51.522;7.266;2023-10-19T00:37:54;4.65;;;3.90;;
1446;SDS011;717;51.522;7.266;2023-10-19T00:40:49;4.75;;;3.83;;
1446;SDS011;717;51.522;7.266;2023-10-19T00:43:26;4.95;;;4.45;;
1446;SDS011;717;51.522;7.266;2023-10-19T00:46:00;4.53;;;4.13;;
1446;SDS011;717;51.522;7.266;2023-10-19T00:48:36;4.70;;;4.30;;
1446;SDS011;717;51.522;7.266;2023-10-19T00:51:10;5.13;;;4.32;;
1446;SDS011;717;51.522;7.266;2023-10-19T00:53:54;4.68;;;4.28;;
1446;SDS011;717;51.522;7.266;2023-10-19T00:56:25;4.82;;;4.43;;
1446;SDS011;717;51.522;7.266;2023-10-19T00:58:58;4.78;;;4.38;;
1446;SDS011;717;51.522;7.266;2023-10-19T01:01:40;4.90;;;4.30;;
1446;SDS011;717;51.522;7.266;2023-10-19T01:04:15;4.97;;;4.35;;
1446;SDS011;717;51.522;7.266;2023-10-19T01:06:51;4.57;;;4.18;;
1446;SDS011;717;51.522;7.266;2023-10-19T01:09:32;5.38;;;4.03;;
1446;SDS011;717;51.522;7.266;2023-10-19T01:12:05;4.15;;;3.83;;
1446;SDS011;717;51.522;7.266;2023-10-19T01:15:01;4.85;;;4.45;;
1446;SDS011;717;51.522;7.266;2023-10-19T01:17:34;4.97;;;3.85;;
1446;SDS011;717;51.522;7.266;2023-10-19T01:20:11;4.18;;;3.78;;
1446;SDS011;717;51.522;7.266;2023-10-19T01:22:52;4.68;;;4.28;;
1446;SDS011;717;51.522;7.266;2023-10-19T01:25:34;3.80;;;3.50;;
1446;SDS011;717;51.522;7.266;2023-10-19T01:28:13;4.30;;;3.90;;
1446;SDS011;717;51.522;7.266;2023-10-19T01:30:44;4.45;;;4.05;;
1446;SDS011;717;51.522;7.266;2023-10-19T01:33:18;4.32;;;3.95;;
1446;SDS011;717;51.522;7.266;2023-10-19T01:35:49;4.75;;;4.35;;
1446;SDS011;717;51.522;7.266;2023-10-19T01:38:34;5.03;;;4.25;;
1446;SDS011;717;51.522;7.266;2023-10-19T01:41:05;4.45;;;4.05;;
1446;SDS011;717;51.522;7.266;2023-10-19T01:43:40;4.50;;;4.10;;
1446;SDS011;717;51.522;7.266;2023-10-19T01:46:12;4.53;;;4.13;;
1446;SDS011;717;51.522;7.266;2023-10-19T01:48:43;4.50;;;4.10;;
1446;SDS011;717;51.522;7.266;2023-10-19T01:51:13;4.20;;;3.90;;
1446;SDS011;717;51.522;7.266;2023-10-19T01:53:44;5.40;;;4.40;;
1446;SDS011;717;51.522;7.266;2023-10-19T01:56:15;4.22;;;3.90;;
1446;SDS011;717;51.522;7.266;2023-10-19T01:58:44;5.20;;;4.70;;
1446;SDS011;717;51.522;7.266;2023-10-19T02:01:16;4.72;;;4.32;;
1446;SDS011;717;51.522;7.266;2023-10-19T02:03:47;4.50;;;4.10;;
1446;SDS011;717;51.522;7.266;2023-10-19T02:06:22;4.57;;;4.18;;
1446;SDS011;717;51.522;7.266;2023-10-19T02:08:56;4.95;;;4.45;;
1446;SDS011;717;51.522;7.266;2023-10-19T02:11:36;4.78;;;4.38;;
1446;SDS011;717;51.522;7.266;2023-10-19T02:14:08;6.80;;;4.85;;
1446;SDS011;717;51.522;7.266;2023-10-19T02:16:41;5.50;;;4.68;;
1446;SDS011;717;51.522;7.266;2023-10-19T02:19:13;4.75;;;4.32;;
1446;SDS011;717;51.522;7.266;2023-10-19T02:21:41;4.93;;;4.53;;
1446;SDS011;717;51.522;7.266;2023-10-19T02:24:17;5.50;;;4.53;;
1446;SDS011;717;51.522;7.266;2023-10-19T02:26:45;5.32;;;4.85;;
1446;SDS011;717;51.522;7.266;2023-10-19T02:29:18;5.15;;;3.97;;
1446;SDS011;717;51.522;7.266;2023-10-19T02:31:45;4.60;;;4.20;;
1446;SDS011;717;51.522;7.266;2023-10-19T02:34:17;4.72;;;4.20;;
1446;SDS011;717;51.522;7.266;2023-10-19T02:36:45;4.30;;;3.90;;
1446;SDS011;717;51.522;7.266;2023-10-19T02:39:19;4.97;;;3.85;;
1446;SDS011;717;51.522;7.266;2023-10-19T02:41:48;3.65;;;3.35;;
1446;SDS011;717;51.522;7.266;2023-10-19T02:44:21;3.53;;;3.05;;
1446;SDS011;717;51.522;7.266;2023-10-19T02:46:49;4.15;;;3.10;;
1446;SDS011;717;51.522;7.266;2023-10-19T02:49:26;3.75;;;3.15;;
1446;SDS011;717;51.522;7.266;2023-10-19T02:51:56;3.55;;;3.10;;
1446;SDS011;717;51.522;7.266;2023-10-19T02:54:33;3.08;;;2.58;;
1446;SDS011;717;51.522;7.266;2023-10-19T02:57:02;2.88;;;2.47;;
1446;SDS011;717;51.522;7.266;2023-10-19T02:59:35;3.28;;;2.40;;
1446;SDS011;717;51.522;7.266;2023-10-19T03:02:03;2.50;;;2.30;;
1446;SDS011;717;51.522;7.266;2023-10-19T03:04:44;2.55;;;2.20;;
1446;SDS011;717;51.522;7.266;2023-10-19T03:07:15;2.30;;;2.05;;
1446;SDS011;717;51.522;7.266;2023-10-19T03:09:45;2.65;;;1.83;;
1446;SDS011;717;51.522;7.266;2023-10-19T03:12:20;1.73;;;1.63;;
1446;SDS011;717;51.522;7.266;2023-10-19T03:14:52;1.83;;;1.60;;
1446;SDS011;717;51.522;7.266;2023-10-19T03:17:22;2.00;;;1.30;;
1446;SDS011;717;51.522;7.266;2023-10-19T03:19:53;2.28;;;1.75;;
1446;SDS011;717;51.522;7.266;2023-10-19T03:22:23;2.13;;;1.38;;
1446;SDS011;717;51.522;7.266;2023-10-19T03:24:56;1.95;;;1.70;;
1446;SDS011;717;51.522;7.266;2023-10-19T03:27:41;2.05;;;1.60;;
1446;SDS011;717;51.522;7.266;2023-10-19T03:30:11;2.03;;;1.40;;
1446;SDS011;717;51.522;7.266;2023-10-19T03:32:43;2.70;;;1.55;;
1446;SDS011;717;51.522;7.266;2023-10-19T03:35:13;1.73;;;1.02;;
1446;SDS011;717;51.522;7.266;2023-10-19T03:37:44;1.88;;;1.30;;
1446;SDS011;717;51.522;7.266;2023-10-19T03:40:18;2.15;;;1.08;;
1446;SDS011;717;51.522;7.266;2023-10-19T03:42:56;1.25;;;1.15;;
1446;SDS011;717;51.522;7.266;2023-10-19T03:45:26;2.25;;;1.50;;
1446;SDS011;717;51.522;7.266;2023-10-19T03:48:00;1.48;;;1.38;;
1446;SDS011;717;51.522;7.266;2023-10-19T03:50:34;1.90;;;1.70;;
1446;SDS011;717;51.522;7.266;2023-10-19T03:53:05;3.20;;;1.75;;
1446;SDS011;717;51.522;7.266;2023-10-19T03:55:41;3.38;;;2.05;;
1446;SDS011;717;51.522;7.266;2023-10-19T03:58:13;2.30;;;1.80;;
1446;SDS011;717;51.522;7.266;2023-10-19T04:00:47;2.38;;;2.17;;
1446;SDS011;717;51.522;7.266;2023-10-19T04:03:18;1.98;;;1.73;;
1446;SDS011;717;51.522;7.266;2023-10-19T04:05:51;3.13;;;2.20;;
1446;SDS011;717;51.522;7.266;2023-10-19T04:08:21;1.95;;;1.80;;
1446;SDS011;717;51.522;7.266;2023-10-19T04:10:55;2.40;;;1.75;;
1446;SDS011;717;51.522;7.266;2023-10-19T04:13:38;2.20;;;1.42;;
1446;SDS011;717;51.522;7.266;2023-10-19T04:16:08;2.42;;;1.92;;
1446;SDS011;717;51.522;7.266;2023-10-19T04:18:39;1.75;;;1.65;;
1446;SDS011;717;51.522;7.266;2023-10-19T04:21:10;2.50;;;1.73;;
1446;SDS011;717;51.522;7.266;2023-10-19T04:23:40;2.47;;;1.73;;
1446;SDS011;717;51.522;7.266;2023-10-19T04:26:15;2.17;;;1.30;;
1446;SDS011;717;51.522;7.266;2023-10-19T04:28:45;2.53;;;1.60;;
1446;SDS011;717;51.522;7.266;2023-10-19T04:31:19;1.70;;;1.60;;
1446;SDS011;717;51.522;7.266;2023-10-19T04:33:50;1.95;;;1.65;;
1446;SDS011;717;51.522;7.266;2023-10-19T04:36:21;1.70;;;1.42;;
1446;SDS011;717;51.522;7.266;2023-10-19T04:38:52;1.45;;;1.35;;
1446;SDS011;717;51.522;7.266;2023-10-19T04:41:25;1.33;;;1.23;;
1446;SDS011;717;51.522;7.266;2023-10-19T04:43:56;1.30;;;1.20;;
1446;SDS011;717;51.522;7.266;2023-10-19T04:46:27;2.30;;;1.23;;
1446;SDS011;717;51.522;7.266;2023-10-19T04:48:57;1.77;;;1.13;;
1446;SDS011;717;51.522;7.266;2023-10-19T04:51:27;1.70;;;1.23;;
1446;SDS011;717;51.522;7.266;2023-10-19T04:53:57;3.70;;;1.42;;
1446;SDS011;717;51.522;7.266;2023-10-19T04:56:31;2.47;;;1.45;;
1446;SDS011;717;51.522;7.266;2023-10-19T04:59:02;2.28;;;1.15;;
1446;SDS011;717;51.522;7.266;2023-10-19T05:01:32;2.40;;;1.30;;
1446;SDS011;717;51.522;7.266;2023-10-19T05:04:04;1.95;;;1.13;;
1446;SDS011;717;51.522;7.266;2023-10-19T05:06:34;2.45;;;1.30;;
1446;SDS011;717;51.522;7.266;2023-10-19T05:09:05;1.67;;;1.10;;
1446;SDS011;717;51.522;7.266;2023-10-19T05:11:37;2.08;;;1.42;;
1446;SDS011;717;51.522;7.266;2023-10-19T05:14:08;2.58;;;1.30;;
1446;SDS011;717;51.522;7.266;2023-10-19T05:16:40;3.03;;;1.40;;
1446;SDS011;717;51.522;7.266;2023-10-19T05:19:10;1.63;;;1.30;;
1446;SDS011;717;51.522;7.266;2023-10-19T05:21:40;2.22;;;1.30;;
1446;SDS011;717;51.522;7.266;2023-10-19T05:24:11;3.17;;;1.60;;
1446;SDS011;717;51.522;7.266;2023-10-19T05:26:44;2.28;;;1.50;;
1446;SDS011;717;51.522;7.266;2023-10-19T05:29:14;1.67;;;1.55;;
1446;SDS011;717;51.522;7.266;2023-10-19T05:31:45;3.10;;;1.80;;
1446;SDS011;717;51.522;7.266;2023-10-19T05:34:20;2.45;;;1.80;;
1446;SDS011;717;51.522;7.266;2023-10-19T05:36:50;2.55;;;1.90;;
1446;SDS011;717;51.522;7.266;2023-10-19T05:39:20;2.83;;;1.95;;
1446;SDS011;717;51.522;7.266;2023-10-19T05:41:57;2.38;;;1.50;;
1446;SDS011;717;51.522;7.266;2023-10-19T05:44:28;2.33;;;1.50;;
1446;SDS011;717;51.522;7.266;2023-10-19T05:46:59;1.35;;;1.25;;
1446;SDS011;717;51.522;7.266;2023-10-19T05:49:29;1.73;;;1.58;;
1446;SDS011;717;51.522;7.266;2023-10-19T05:52:02;2.92;;;1.40;;
1446;SDS011;717;51.522;7.266;2023-10-19T05:54:32;2.40;;;1.67;;
1446;SDS011;717;51.522;7.266;2023-10-19T05:57:06;2.85;;;1.40;;
1446;SDS011;717;51.522;7.266;2023-10-19T05:59:36;2.40;;;1.63;;
1446;SDS011;717;51.522;7.266;2023-10-19T06:02:07;2.03;;;1.80;;
1446;SDS011;717;51.522;7.266;2023-10-19T06:04:37;3.10;;;2.13;;
1446;SDS011;717;51.522;7.266;2023-10-19T06:07:07;3.13;;;1.60;;
1446;SDS011;717;51.522;7.266;2023-10-19T06:09:37;2.17;;;1.67;;
1446;SDS011;717;51.522;7.266;2023-10-19T06:12:10;2.13;;;1.52;;
1446;SDS011;717;51.522;7.266;2023-10-19T06:14:40;3.65;;;1.90;;
1446;SDS011;717;51.522;7.266;2023-10-19T06:17:10;1.75;;;1.30;;
1446;SDS011;717;51.522;7.266;2023-10-19T06:19:46;2.63;;;1.70;;
1446;SDS011;717;51.522;7.266;2023-10-19T06:22:16;2.17;;;1.48;;
1446;SDS011;717;51.522;7.266;2023-10-19T06:24:46;2.63;;;1.55;;
1446;SDS011;717;51.522;7.266;2023-10-19T06:27:19;3.05;;;1.85;;
1446;SDS011;717;51.522;7.266;2023-10-19T06:29:50;2.10;;;1.90;;
1446;SDS011;717;51.522;7.266;2023-10-19T06:32:20;2.20;;;1.42;;
1446;SDS011;717;51.522;7.266;2023-10-19T06:34:50;2.03;;;1.40;;
1446;SDS011;717;51.522;7.266;2023-10-19T06:37:20;1.90;;;1.48;;
1446;SDS011;717;51.522;7.266;2023-10-19T06:39:50;3.25;;;1.65;;
1446;SDS011;717;51.522;7.266;2023-10-19T06:42:23;3.53;;;1.67;;
1446;SDS011;717;51.522;7.266;2023-10-19T06:44:53;5.40;;;1.98;;
1446;SDS011;717;51.522;7.266;2023-10-19T06:47:25;2.67;;;1.70;;
1446;SDS011;717;51.522;7.266;2023-10-19T06:49:56;3.17;;;1.50;;
1446;SDS011;717;51.522;7.266;2023-10-19T06:52:26;3.17;;;2.03;;
1446;SDS011;717;51.522;7.266;2023-10-19T06:54:59;3.28;;;1.83;;
1446;SDS011;717;51.522;7.266;2023-10-19T06:57:31;4.00;;;1.63;;
1446;SDS011;717;51.522;7.266;2023-10-19T07:00:02;2.42;;;1.80;;
1446;SDS011;717;51.522;7.266;2023-10-19T07:02:40;3.78;;;1.80;;
1446;SDS011;717;51.522;7.266;2023-10-19T07:05:12;3.08;;;2.00;;
1446;SDS011;717;51.522;7.266;2023-10-19T07:07:45;2.92;;;1.80;;
1446;SDS011;717;51.522;7.266;2023-10-19T07:10:15;3.97;;;1.52;;
1446;SDS011;717;51.522;7.266;2023-10-19T07:12:50;2.20;;;1.80;;
1446;SDS011;717;51.522;7.266;2023-10-19T07:15:21;3.50;;;2.00;;
1446;SDS011;717;51.522;7.266;2023-10-19T07:17:52;3.30;;;1.90;;
1446;SDS011;717;51.522;7.266;2023-10-19T07:20:23;3.17;;;1.70;;
1446;SDS011;717;51.522;7.266;2023-10-19T07:22:58;2.53;;;1.83;;
1446;SDS011;717;51.522;7.266;2023-10-19T07:25:33;3.28;;;1.90;;
1446;SDS011;717;51.522;7.266;2023-10-19T07:28:13;4.40;;;2.38;;
1446;SDS011;717;51.522;7.266;2023-10-19T07:30:43;2.85;;;1.83;;
1446;SDS011;717;51.522;7.266;2023-10-19T07:33:14;3.70;;;2.40;;
1446;SDS011;717;51.522;7.266;2023-10-19T07:35:47;3.58;;;2.05;;
1446;SDS011;717;51.522;7.266;2023-10-19T07:38:19;5.03;;;2.75;;
1446;SDS011;717;51.522;7.266;2023-10-19T07:40:50;3.60;;;2.45;;
1446;SDS011;717;51.522;7.266;2023-10-19T07:43:24;2.75;;;2.30;;
1446;SDS011;717;51.522;7.266;2023-10-19T07:45:54;4.28;;;2.40;;
1446;SDS011;717;51.522;7.266;2023-10-19T07:48:25;4.43;;;2.60;;
1446;SDS011;717;51.522;7.266;2023-10-19T07:50:55;4.65;;;2.10;;
1446;SDS011;717;51.522;7.266;2023-10-19T07:53:25;4.22;;;2.35;;
1446;SDS011;717;51.522;7.266;2023-10-19T07:55:56;4.40;;;2.50;;
1446;SDS011;717;51.522;7.266;2023-10-19T07:58:29;3.80;;;2.03;;
1446;SDS011;717;51.522;7.266;2023-10-19T08:01:00;4.38;;;2.30;;
1446;SDS011;717;51.522;7.266;2023-10-19T08:03:32;4.07;;;2.30;;
1446;SDS011;717;51.522;7.266;2023-10-19T08:06:02;5.80;;;2.63;;
1446;SDS011;717;51.522;7.266;2023-10-19T08:08:33;3.80;;;2.20;;
1446;SDS011;717;51.522;7.266;2023-10-19T08:11:03;2.22;;;2.03;;
1446;SDS011;717;51.522;7.266;2023-10-19T08:13:35;2.75;;;2.33;;
1446;SDS011;717;51.522;7.266;2023-10-19T08:16:06;4.40;;;2.47;;
1446;SDS011;717;51.522;7.266;2023-10-19T08:18:38;6.00;;;2.38;;
1446;SDS011;717;51.522;7.266;2023-10-19T08:21:08;5.32;;;2.90;;
1446;SDS011;717;51.522;7.266;2023-10-19T08:23:39;2.95;;;2.20;;
1446;SDS011;717;51.522;7.266;2023-10-19T08:26:11;5.95;;;2.33;;
1446;SDS011;717;51.522;7.266;2023-10-19T08:28:44;4.07;;;2.13;;
1446;SDS011;717;51.522;7.266;2023-10-19T08:31:14;4.93;;;2.53;;
1446;SDS011;717;51.522;7.266;2023-10-19T08:33:45;5.53;;;2.10;;
1446;SDS011;717;51.522;7.266;2023-10-19T08:36:18;3.72;;;2.28;;
1446;SDS011;717;51.522;7.266;2023-10-19T08:38:48;2.55;;;2.00;;
1446;SDS011;717;51.522;7.266;2023-10-19T08:41:20;3.63;;;2.53;;
1446;SDS011;717;51.522;7.266;2023-10-19T08:43:53;2.63;;;2.10;;
1446;SDS011;717;51.522;7.266;2023-10-19T08:46:23;2.25;;;2.05;;
1446;SDS011;717;51.522;7.266;2023-10-19T08:48:55;5.85;;;2.40;;
1446;SDS011;717;51.522;7.266;2023-10-19T08:51:26;3.92;;;2.35;;
1446;SDS011;717;51.522;7.266;2023-10-19T08:53:56;7.65;;;2.70;;
1446;SDS011;717;51.522;7.266;2023-10-19T08:56:26;5.72;;;2.42;;
1446;SDS011;717;51.522;7.266;2023-10-19T08:58:59;3.20;;;2.10;;
1446;SDS011;717;51.522;7.266;2023-10-19T09:01:30;4.53;;;2.15;;
1446;SDS011;717;51.522;7.266;2023-10-19T09:04:02;2.88;;;2.38;;
1446;SDS011;717;51.522;7.266;2023-10-19T09:06:34;2.35;;;1.73;;
1446;SDS011;717;51.522;7.266;2023-10-19T09:09:08;4.43;;;2.08;;
1446;SDS011;717;51.522;7.266;2023-10-19T09:11:43;3.25;;;2.00;;
1446;SDS011;717;51.522;7.266;2023-10-19T09:14:16;2.28;;;1.88;;
1446;SDS011;717;51.522;7.266;2023-10-19T09:17:00;3.00;;;1.90;;
1446;SDS011;717;51.522;7.266;2023-10-19T09:19:38;2.83;;;2.10;;
1446;SDS011;717;51.522;7.266;2023-10-19T09:22:10;2.63;;;1.90;;
1446;SDS011;717;51.522;7.266;2023-10-19T09:24:45;3.70;;;2.17;;
1446;SDS011;717;51.522;7.266;2023-10-19T09:27:16;2.35;;;1.67;;
1446;SDS011;717;51.522;7.266;2023-10-19T09:29:49;3.50;;;2.15;;
1446;SDS011;717;51.522;7.266;2023-10-19T09:32:20;3.38;;;2.22;;
1446;SDS011;717;51.522;7.266;2023-10-19T09:34:50;2.50;;;1.85;;
1446;SDS011;717;51.522;7.266;2023-10-19T09:37:22;3.90;;;1.98;;
1446;SDS011;717;51.522;7.266;2023-10-19T09:39:53;3.33;;;1.95;;
1446;SDS011;717;51.522;7.266;2023-10-19T09:42:23;2.25;;;1.73;;
1446;SDS011;717;51.522;7.266;2023-10-19T09:44:59;2.35;;;1.95;;
1446;SDS011;717;51.522;7.266;2023-10-19T09:47:34;4.95;;;2.05;;
1446;SDS011;717;51.522;7.266;2023-10-19T09:50:08;4.00;;;1.83;;
1446;SDS011;717;51.522;7.266;2023-10-19T09:52:39;2.13;;;1.75;;
1446;SDS011;717;51.522;7.266;2023-10-19T09:55:10;4.53;;;2.17;;
1446;SDS011;717;51.522;7.266;2023-10-19T09:57:46;3.30;;;2.00;;
1446;SDS011;717;51.522;7.266;2023-10-19T10:00:23;2.72;;;1.67;;
1446;SDS011;717;51.522;7.266;2023-10-19T10:02:58;4.22;;;1.85;;
1446;SDS011;717;51.522;7.266;2023-10-19T10:11:12;1.70;;;1.33;;
1446;SDS011;717;51.522;7.266;2023-10-19T10:13:45;2.95;;;1.27;;
1446;SDS011;717;51.522;7.266;2023-10-19T10:16:21;3.75;;;1.52;;
1446;SDS011;717;51.522;7.266;2023-10-19T10:18:54;2.42;;;1.45;;
1446;SDS011;717;51.522;7.266;2023-10-19T10:21:27;2.65;;;1.20;;
1446;SDS011;717;51.522;7.266;2023-10-19T10:24:00;3.85;;;1.20;;
1446;SDS011;717;51.522;7.266;2023-10-19T10:29:30;2.38;;;1.50;;
1446;SDS011;717;51.522;7.266;2023-10-19T10:32:02;2.88;;;1.27;;
1446;SDS011;717;51.522;7.266;2023-10-19T10:34:43;2.35;;;1.48;;
1446;SDS011;717;51.522;7.266;2023-10-19T10:37:15;2.72;;;1.25;;
1446;SDS011;717;51.522;7.266;2023-10-19T10:39:47;3.78;;;1.60;;
1446;SDS011;717;51.522;7.266;2023-10-19T10:42:17;2.25;;;1.13;;
1446;SDS011;717;51.522;7.266;2023-10-19T10:44:47;3.95;;;1.70;;
1446;SDS011;717;51.522;7.266;2023-10-19T10:47:24;5.45;;;1.50;;
1446;SDS011;717;51.522;7.266;2023-10-19T10:49:57;3.03;;;1.33;;
1446;SDS011;717;51.522;7.266;2023-10-19T10:52:28;3.95;;;1.50;;
1446;SDS011;717;51.522;7.266;2023-10-19T10:55:05;4.53;;;1.27;;
1446;SDS011;717;51.522;7.266;2023-10-19T10:57:38;3.08;;;1.35;;
1446;SDS011;717;51.522;7.266;2023-10-19T11:00:10;2.70;;;1.42;;
1446;SDS011;717;51.522;7.266;2023-10-19T11:02:58;3.22;;;1.33;;
1446;SDS011;717;51.522;7.266;2023-10-19T11:05:30;1.75;;;1.00;;
1446;SDS011;717;51.522;7.266;2023-10-19T11:08:02;5.18;;;1.20;;
1446;SDS011;717;51.522;7.266;2023-10-19T11:10:35;3.78;;;1.15;;
1446;SDS011;717;51.522;7.266;2023-10-19T11:13:07;3.22;;;1.17;;
1446;SDS011;717;51.522;7.266;2023-10-19T11:15:38;4.32;;;1.40;;
1446;SDS011;717;51.522;7.266;2023-10-19T11:18:30;4.88;;;1.02;;
1446;SDS011;717;51.522;7.266;2023-10-19T11:21:06;5.32;;;1.33;;
1446;SDS011;717;51.522;7.266;2023-10-19T11:23:39;2.63;;;0.93;;
1446;SDS011;717;51.522;7.266;2023-10-19T11:26:11;3.30;;;1.17;;
1446;SDS011;717;51.522;7.266;2023-10-19T11:28:42;3.58;;;1.38;;
1446;SDS011;717;51.522;7.266;2023-10-19T11:31:15;4.05;;;0.93;;
1446;SDS011;717;51.522;7.266;2023-10-19T11:33:49;2.90;;;1.10;;
1446;SDS011;717;51.522;7.266;2023-10-19T11:36:21;3.25;;;1.20;;
1446;SDS011;717;51.522;7.266;2023-10-19T11:38:52;2.47;;;1.25;;
1446;SDS011;717;51.522;7.266;2023-10-19T11:41:24;3.67;;;1.05;;
1446;SDS011;717;51.522;7.266;2023-10-19T11:43:54;3.50;;;0.95;;
1446;SDS011;717;51.522;7.266;2023-10-19T11:46:24;2.85;;;0.90;;
1446;SDS011;717;51.522;7.266;2023-10-19T11:48:58;4.03;;;1.20;;
1446;SDS011;717;51.522;7.266;2023-10-19T11:51:30;3.35;;;0.98;;
1446;SDS011;717;51.522;7.266;2023-10-19T11:54:00;4.15;;;1.10;;
1446;SDS011;717;51.522;7.266;2023-10-19T11:56:30;2.95;;;1.20;;
1446;SDS011;717;51.522;7.266;2023-10-19T11:59:01;3.33;;;1.23;;
1446;SDS011;717;51.522;7.266;2023-10-19T12:01:31;3.42;;;0.90;;
1446;SDS011;717;51.522;7.266;2023-10-19T12:04:04;2.72;;;0.80;;
1446;SDS011;717;51.522;7.266;2023-10-19T12:06:36;3.17;;;0.90;;
1446;SDS011;717;51.522;7.266;2023-10-19T12:09:06;2.25;;;0.85;;
1446;SDS011;717;51.522;7.266;2023-10-19T12:11:41;5.38;;;1.40;;
1446;SDS011;717;51.522;7.266;2023-10-19T12:14:14;4.25;;;1.10;;
1446;SDS011;717;51.522;7.266;2023-10-19T12:16:44;5.75;;;1.50;;
1446;SDS011;717;51.522;7.266;2023-10-19T12:19:17;4.60;;;1.50;;
1446;SDS011;717;51.522;7.266;2023-10-19T12:21:47;4.18;;;1.15;;
1446;SDS011;717;51.522;7.266;2023-10-19T12:24:18;3.40;;;1.30;;
1446;SDS011;717;51.522;7.266;2023-10-19T12:26:48;4.45;;;1.58;;
1446;SDS011;717;51.522;7.266;2023-10-19T12:29:18;8.50;;;1.60;;
1446;SDS011;717;51.522;7.266;2023-10-19T12:31:48;2.63;;;1.23;;
1446;SDS011;717;51.522;7.266;2023-10-19T12:34:21;5.05;;;1.38;;
1446;SDS011;717;51.522;7.266;2023-10-19T12:36:51;3.22;;;1.33;;
1446;SDS011;717;51.522;7.266;2023-10-19T12:39:26;3.40;;;1.17;;
1446;SDS011;717;51.522;7.266;2023-10-19T12:42:09;7.20;;;2.90;;
1446;SDS011;717;51.522;7.266;2023-10-19T12:44:40;4.78;;;2.33;;
1446;SDS011;717;51.522;7.266;2023-10-19T12:47:13;4.80;;;2.60;;
1446;SDS011;717;51.522;7.266;2023-10-19T12:49:47;3.78;;;1.92;;
1446;SDS011;717;51.522;7.266;2023-10-19T12:52:19;4.03;;;2.22;;
1446;SDS011;717;51.522;7.266;2023-10-19T12:54:49;3.38;;;1.77;;
1446;SDS011;717;51.522;7.266;2023-10-19T12:57:30;7.43;;;2.08;;
1446;SDS011;717;51.522;7.266;2023-10-19T13:00:01;3.28;;;1.77;;
1446;SDS011;717;51.522;7.266;2023-10-19T13:02:50;5.35;;;1.85;;
1446;SDS011;717;51.522;7.266;2023-10-19T13:05:29;6.28;;;2.42;;
1446;SDS011;717;51.522;7.266;2023-10-19T13:08:01;4.03;;;1.70;;
1446;SDS011;717;51.522;7.266;2023-10-19T13:10:33;3.33;;;1.40;;
1446;SDS011;717;51.522;7.266;2023-10-19T13:13:06;4.82;;;1.38;;
1446;SDS011;717;51.522;7.266;2023-10-19T13:15:38;3.97;;;1.30;;
1446;SDS011;717;51.522;7.266;2023-10-19T13:18:11;3.92;;;1.50;;
1446;SDS011;717;51.522;7.266;2023-10-19T13:20:49;3.28;;;1.08;;
1446;SDS011;717;51.522;7.266;2023-10-19T13:23:20;2.58;;;1.05;;
1446;SDS011;717;51.522;7.266;2023-10-19T13:25:50;3.30;;;1.00;;
1446;SDS011;717;51.522;7.266;2023-10-19T13:28:28;3.65;;;1.20;;
1446;SDS011;717;51.522;7.266;2023-10-19T13:30:58;3.50;;;1.10;;
1446;SDS011;717;51.522;7.266;2023-10-19T13:33:28;4.38;;;0.90;;
1446;SDS011;717;51.522;7.266;2023-10-19T13:36:01;3.78;;;1.25;;
1446;SDS011;717;51.522;7.266;2023-10-19T13:38:33;4.22;;;1.05;;
1446;SDS011;717;51.522;7.266;2023-10-19T13:41:03;3.88;;;0.80;;
1446;SDS011;717;51.522;7.266;2023-10-19T13:43:36;2.67;;;0.88;;
1446;SDS011;717;51.522;7.266;2023-10-19T13:46:09;2.78;;;1.23;;
1446;SDS011;717;51.522;7.266;2023-10-19T13:48:39;3.15;;;1.00;;
1446;SDS011;717;51.522;7.266;2023-10-19T13:51:15;3.97;;;1.33;;
1446;SDS011;717;51.522;7.266;2023-10-19T13:53:46;2.70;;;1.40;;
1446;SDS011;717;51.522;7.266;2023-10-19T13:56:16;3.70;;;1.02;;
1446;SDS011;717;51.522;7.266;2023-10-19T13:58:46;4.03;;;1.10;;
1446;SDS011;717;51.522;7.266;2023-10-19T14:01:17;5.47;;;1.42;;
1446;SDS011;717;51.522;7.266;2023-10-19T14:03:51;6.30;;;1.48;;
1446;SDS011;717;51.522;7.266;2023-10-19T14:06:25;3.78;;;1.10;;
1446;SDS011;717;51.522;7.266;2023-10-19T14:08:55;3.90;;;1.25;;
1446;SDS011;717;51.522;7.266;2023-10-19T14:11:26;5.25;;;1.80;;
1446;SDS011;717;51.522;7.266;2023-10-19T14:13:56;3.22;;;1.13;;
1446;SDS011;717;51.522;7.266;2023-10-19T14:16:26;3.65;;;1.20;;
1446;SDS011;717;51.522;7.266;2023-10-19T14:18:57;5.70;;;1.83;;
1446;SDS011;717;51.522;7.266;2023-10-19T14:21:32;5.15;;;1.63;;
1446;SDS011;717;51.522;7.266;2023-10-19T14:24:04;4.55;;;1.20;;
1446;SDS011;717;51.522;7.266;2023-10-19T14:26:35;2.10;;;1.20;;
1446;SDS011;717;51.522;7.266;2023-10-19T14:29:05;3.33;;;1.13;;
1446;SDS011;717;51.522;7.266;2023-10-19T14:31:35;4.28;;;1.42;;
1446;SDS011;717;51.522;7.266;2023-10-19T14:34:05;2.92;;;1.33;;
1446;SDS011;717;51.522;7.266;2023-10-19T14:36:40;4.15;;;1.40;;
1446;SDS011;717;51.522;7.266;2023-10-19T14:39:10;4.13;;;1.67;;
1446;SDS011;717;51.522;7.266;2023-10-19T14:41:43;5.03;;;1.40;;
1446;SDS011;717;51.522;7.266;2023-10-19T14:44:13;3.78;;;1.35;;
1446;SDS011;717;51.522;7.266;2023-10-19T14:46:43;4.72;;;1.45;;
1446;SDS011;717;51.522;7.266;2023-10-19T14:49:13;5.60;;;1.90;;
1446;SDS011;717;51.522;7.266;2023-10-19T14:51:47;3.50;;;1.88;;
1446;SDS011;717;51.522;7.266;2023-10-19T14:54:17;5.20;;;1.77;;
1446;SDS011;717;51.522;7.266;2023-10-19T14:56:47;3.88;;;1.90;;
1446;SDS011;717;51.522;7.266;2023-10-19T14:59:17;6.72;;;1.60;;
1446;SDS011;717;51.522;7.266;2023-10-19T15:01:47;5.70;;;1.55;;
1446;SDS011;717;51.522;7.266;2023-10-19T15:04:18;5.15;;;1.48;;
1446;SDS011;717;51.522;7.266;2023-10-19T15:06:51;3.60;;;1.38;;
1446;SDS011;717;51.522;7.266;2023-10-19T15:09:21;4.82;;;1.60;;
1446;SDS011;717;51.522;7.266;2023-10-19T15:11:52;2.50;;;1.50;;
1446;SDS011;717;51.522;7.266;2023-10-19T15:14:22;5.50;;;1.30;;
1446;SDS011;717;51.522;7.266;2023-10-19T15:16:52;5.03;;;1.52;;
1446;SDS011;717;51.522;7.266;2023-10-19T15:19:23;6.72;;;1.80;;
1446;SDS011;717;51.522;7.266;2023-10-19T15:21:55;4.75;;;1.70;;
1446;SDS011;717;51.522;7.266;2023-10-19T15:24:25;2.85;;;1.50;;
1446;SDS011;717;51.522;7.266;2023-10-19T15:26:56;6.50;;;2.20;;
1446;SDS011;717;51.522;7.266;2023-10-19T15:29:26;6.82;;;1.98;;
1446;SDS011;717;51.522;7.266;2023-10-19T15:31:57;4.90;;;1.63;;
1446;SDS011;717;51.522;7.266;2023-10-19T15:34:27;4.18;;;1.65;;
1446;SDS011;717;51.522;7.266;2023-10-19T15:37:03;6.00;;;1.60;;
1446;SDS011;717;51.522;7.266;2023-10-19T15:39:33;3.72;;;1.42;;
1446;SDS011;717;51.522;7.266;2023-10-19T15:42:03;4.15;;;2.20;;
1446;SDS011;717;51.522;7.266;2023-10-19T15:44:34;4.47;;;1.60;;
1446;SDS011;717;51.522;7.266;2023-10-19T15:47:04;5.07;;;1.73;;
1446;SDS011;717;51.522;7.266;2023-10-19T15:49:36;3.95;;;1.90;;
1446;SDS011;717;51.522;7.266;2023-10-19T15:52:17;3.90;;;1.95;;
1446;SDS011;717;51.522;7.266;2023-10-19T15:54:49;5.55;;;1.77;;
1446;SDS011;717;51.522;7.266;2023-10-19T15:57:19;3.42;;;1.63;;
1446;SDS011;717;51.522;7.266;2023-10-19T15:59:51;5.68;;;1.70;;
1446;SDS011;717;51.522;7.266;2023-10-19T16:02:21;6.07;;;1.58;;
1446;SDS011;717;51.522;7.266;2023-10-19T16:04:51;4.57;;;1.35;;
1446;SDS011;717;51.522;7.266;2023-10-19T16:07:23;3.47;;;1.48;;
1446;SDS011;717;51.522;7.266;2023-10-19T16:09:53;6.13;;;1.90;;
1446;SDS011;717;51.522;7.266;2023-10-19T16:12:24;5.75;;;1.77;;